Time;durP1;ratioP1;P1;durP2;ratioP2;P2;SDS_P1;SDS_P2;PMS_P1;PMS_P2;Temp;Humidity;BMP_temperature;BMP_pressure;BME280_temperature;BME280_humidity;BME280_pressure;Samples;Min_cycle;Max_cycle;Signal;HPM_P1;HPM_P2
2022/11/28 00:00:52;;;;;;;6.55;3.85;;;6.80;99.90;;;;;;5000008;28;20026;-82
2022/11/28 00:03:18;;;;;;;4.95;3.38;;;6.90;99.90;;;;;;4984296;28;20040;-82
2022/11/28 00:05:44;;;;;;;6.63;3.70;;;6.80;99.90;;;;;;4984209;28;20076;-82
2022/11/28 00:08:09;;;;;;;9.05;3.83;;;6.90;99.90;;;;;;4977348;28;20038;-82
2022/11/28 00:10:39;;;;;;;4.65;3.28;;;6.80;99.90;;;;;;4983310;28;20053;-81
2022/11/28 00:13:04;;;;;;;6.72;3.58;;;6.90;99.90;;;;;;4999899;28;20490;-82
2022/11/28 00:15:30;;;;;;;5.43;3.88;;;6.80;99.90;;;;;;4986636;28;20034;-81
2022/11/28 00:18:02;;;;;;;6.00;4.10;;;6.90;99.90;;;;;;5020373;28;20095;-81
2022/11/28 00:20:30;;;;;;;5.43;3.38;;;6.80;99.90;;;;;;5008483;28;20032;-82
2022/11/28 00:22:55;;;;;;;7.82;3.38;;;6.80;99.90;;;;;;5000610;28;20109;-82
2022/11/28 00:25:21;;;;;;;6.68;4.03;;;6.90;99.90;;;;;;5007964;28;20128;-81
2022/11/28 00:27:46;;;;;;;5.45;3.22;;;6.90;99.90;;;;;;5010243;28;20041;-81
2022/11/28 00:30:12;;;;;;;8.95;4.70;;;6.90;99.90;;;;;;5009668;28;20030;-82
2022/11/28 00:32:38;;;;;;;5.18;3.65;;;6.90;99.90;;;;;;5011346;28;20096;-81
2022/11/28 00:35:03;;;;;;;8.25;3.97;;;6.80;99.90;;;;;;4997165;28;20677;-81
2022/11/28 00:37:29;;;;;;;9.02;3.75;;;6.90;99.90;;;;;;5004286;28;20116;-82
2022/11/28 00:39:55;;;;;;;9.65;5.05;;;6.90;99.90;;;;;;5012133;28;20036;-82
2022/11/28 00:42:21;;;;;;;9.02;4.35;;;6.90;99.90;;;;;;5021077;28;20029;-81
2022/11/28 00:44:47;;;;;;;7.28;4.22;;;6.90;99.90;;;;;;4996155;28;20082;-81
2022/11/28 00:47:13;;;;;;;7.78;4.40;;;6.90;99.90;;;;;;5010454;28;20026;-82
2022/11/28 00:49:39;;;;;;;9.18;3.92;;;6.80;99.90;;;;;;5020618;28;20040;-82
2022/11/28 00:52:04;;;;;;;4.68;2.72;;;6.90;99.90;;;;;;5023907;28;20029;-82
2022/11/28 00:54:30;;;;;;;7.20;4.38;;;6.90;99.90;;;;;;5015210;28;20021;-82
2022/11/28 00:56:55;;;;;;;4.93;2.70;;;6.90;99.90;;;;;;4996759;28;20060;-81
2022/11/28 00:59:21;;;;;;;9.40;4.25;;;6.90;99.90;;;;;;4999804;28;20469;-81
2022/11/28 01:01:46;;;;;;;8.93;4.38;;;6.90;99.90;;;;;;5028193;28;20113;-81
2022/11/28 01:04:14;;;;;;;6.28;3.88;;;6.80;99.90;;;;;;5020512;28;20018;-81
2022/11/28 01:06:41;;;;;;;7.55;3.70;;;6.90;99.90;;;;;;4994452;28;20046;-82
2022/11/28 01:09:10;;;;;;;8.10;3.78;;;6.90;99.90;;;;;;5002905;28;20536;-82
2022/11/28 01:11:37;;;;;;;6.55;4.10;;;6.90;99.90;;;;;;4984506;28;20058;-82
2022/11/28 01:14:03;;;;;;;6.95;3.95;;;6.90;99.90;;;;;;4974468;28;20041;-82
2022/11/28 01:16:29;;;;;;;7.57;4.95;;;6.90;99.90;;;;;;4985265;28;20022;-82
2022/11/28 01:18:55;;;;;;;6.75;3.78;;;7.00;99.90;;;;;;5009473;28;20117;-81
2022/11/28 01:21:20;;;;;;;5.70;3.88;;;6.90;99.90;;;;;;5023786;28;20124;-82
2022/11/28 01:23:53;;;;;;;6.43;4.22;;;6.90;99.90;;;;;;5013418;28;20030;-82
2022/11/28 01:26:26;;;;;;;5.25;3.15;;;6.90;99.90;;;;;;5010128;28;20502;-82
2022/11/28 01:28:52;;;;;;;8.65;4.35;;;6.90;99.90;;;;;;5022047;28;20037;-82
2022/11/28 01:31:22;;;;;;;6.00;4.40;;;6.90;99.90;;;;;;5010103;28;20038;-82
2022/11/28 01:33:48;;;;;;;9.35;4.80;;;6.90;99.90;;;;;;5026001;28;20037;-82
2022/11/28 01:36:14;;;;;;;8.35;4.85;;;6.90;99.90;;;;;;5012891;28;20044;-82
2022/11/28 01:38:40;;;;;;;4.70;3.53;;;7.00;99.90;;;;;;5026849;28;20034;-82
2022/11/28 01:41:05;;;;;;;6.70;3.70;;;7.00;99.90;;;;;;5011905;28;20048;-82
2022/11/28 01:43:31;;;;;;;5.28;3.60;;;7.00;99.90;;;;;;5011990;28;20053;-82
2022/11/28 01:45:56;;;;;;;8.25;5.32;;;7.00;99.90;;;;;;5005557;28;20112;-82
2022/11/28 01:48:28;;;;;;;8.93;4.03;;;7.00;99.90;;;;;;5021466;28;20116;-81
2022/11/28 01:50:58;;;;;;;5.97;4.20;;;7.00;99.90;;;;;;4995075;28;20037;-82
2022/11/28 01:53:25;;;;;;;9.02;4.68;;;7.00;99.90;;;;;;5020727;28;20488;-82
2022/11/28 01:55:55;;;;;;;7.82;3.08;;;7.00;99.90;;;;;;5023013;28;20025;-82
2022/11/28 01:58:21;;;;;;;5.45;4.10;;;7.00;99.90;;;;;;5023890;28;20550;-82
2022/11/28 02:00:46;;;;;;;6.88;3.92;;;7.00;99.90;;;;;;5004202;28;20037;-81
2022/11/28 02:03:17;;;;;;;6.10;4.07;;;7.00;99.90;;;;;;5020683;28;20045;-82
2022/11/28 02:05:43;;;;;;;6.10;4.05;;;7.00;99.90;;;;;;5006888;28;20072;-82
2022/11/28 02:08:09;;;;;;;6.47;3.47;;;7.00;99.90;;;;;;5007410;28;20065;-82
2022/11/28 02:11:06;;;;;;;5.72;3.60;;;7.10;99.90;;;;;;5020771;28;20083;-82
2022/11/28 02:13:41;;;;;;;9.02;4.80;;;7.10;99.90;;;;;;5002716;28;20057;-81
2022/11/28 02:16:44;;;;;;;7.60;4.40;;;7.10;99.90;;;;;;4997037;28;20058;-82
2022/11/28 02:19:16;;;;;;;8.55;5.22;;;7.10;99.90;;;;;;4980614;28;20038;-82
2022/11/28 02:22:11;;;;;;;7.13;3.83;;;7.10;99.90;;;;;;4997872;28;20121;-81
2022/11/28 02:24:59;;;;;;;10.05;4.38;;;7.10;99.90;;;;;;4992592;28;20038;-81
2022/11/28 02:27:39;;;;;;;7.88;4.03;;;7.10;99.90;;;;;;5019477;28;20014;-82
2022/11/28 02:30:11;;;;;;;5.30;3.40;;;7.10;99.90;;;;;;5010181;28;20031;-81
2022/11/28 02:32:54;;;;;;;5.80;4.07;;;7.10;99.90;;;;;;4987090;28;20651;-82
2022/11/28 02:35:40;;;;;;;8.90;5.05;;;7.10;99.90;;;;;;5005427;28;20030;-82
2022/11/28 02:38:25;;;;;;;9.07;4.43;;;7.10;99.90;;;;;;4981659;28;20088;-82
2022/11/28 02:40:58;;;;;;;8.18;3.95;;;7.10;99.90;;;;;;5003076;28;20416;-82
2022/11/28 02:44:00;;;;;;;7.53;4.30;;;7.10;99.90;;;;;;5001965;28;20552;-82
2022/11/28 02:46:33;;;;;;;5.85;3.42;;;7.10;99.90;;;;;;5007774;28;20037;-82
2022/11/28 02:49:06;;;;;;;9.40;4.70;;;7.10;99.90;;;;;;4974274;28;20030;-81
2022/11/28 02:51:37;;;;;;;8.23;5.57;;;7.10;99.90;;;;;;4977077;28;20409;-81
2022/11/28 02:54:03;;;;;;;5.68;4.10;;;7.10;99.90;;;;;;4997134;28;20113;-82
2022/11/28 02:56:29;;;;;;;7.72;4.85;;;7.10;99.90;;;;;;4999802;28;20040;-82
2022/11/28 02:58:54;;;;;;;6.25;4.40;;;7.10;99.90;;;;;;4992603;28;20038;-81
2022/11/28 03:01:34;;;;;;;8.02;3.75;;;7.10;99.90;;;;;;5026989;28;20379;-81
2022/11/28 03:04:11;;;;;;;6.28;3.45;;;7.10;99.90;;;;;;5011022;28;20030;-82
2022/11/28 03:06:58;;;;;;;8.73;4.85;;;7.10;99.90;;;;;;4978803;28;20735;-81
2022/11/28 03:09:24;;;;;;;5.10;3.50;;;7.10;99.90;;;;;;5013724;28;20026;-81
2022/11/28 03:12:15;;;;;;;5.53;4.13;;;7.10;99.90;;;;;;5005329;28;20428;-81
2022/11/28 03:15:00;;;;;;;5.15;3.75;;;7.10;99.90;;;;;;5009109;28;20025;-81
2022/11/28 03:17:46;;;;;;;6.57;3.87;;;7.20;99.90;;;;;;4980286;28;20034;-82
2022/11/28 03:20:23;;;;;;;7.18;4.15;;;7.10;99.90;;;;;;5002952;28;20367;-81
2022/11/28 03:23:11;;;;;;;4.93;3.67;;;7.10;99.90;;;;;;5001531;28;20096;-81
2022/11/28 03:26:06;;;;;;;5.03;3.05;;;7.10;99.90;;;;;;4991589;28;20042;-81
2022/11/28 03:29:20;;;;;;;6.57;5.00;;;7.10;99.90;;;;;;5017607;28;20962;-82
2022/11/28 03:31:57;;;;;;;9.30;4.63;;;7.10;99.90;;;;;;5012165;28;20034;-81
2022/11/28 03:34:25;;;;;;;7.15;4.68;;;7.10;99.90;;;;;;4981383;28;20501;-81
2022/11/28 03:36:57;;;;;;;7.43;4.90;;;7.10;99.90;;;;;;4997205;28;20088;-81
2022/11/28 03:39:24;;;;;;;7.72;4.20;;;7.10;99.90;;;;;;4982577;28;20524;-81
2022/11/28 03:41:58;;;;;;;7.47;4.50;;;7.10;99.90;;;;;;4977422;28;20117;-81
2022/11/28 03:44:29;;;;;;;7.38;4.72;;;7.10;99.90;;;;;;4986952;28;20061;-81
2022/11/28 03:46:55;;;;;;;5.43;3.30;;;7.10;99.90;;;;;;5005039;28;20036;-81
2022/11/28 03:49:27;;;;;;;6.40;3.78;;;7.00;99.90;;;;;;5011369;28;20551;-81
2022/11/28 03:51:58;;;;;;;9.00;4.40;;;7.10;99.90;;;;;;4994835;28;20030;-81
2022/11/28 03:54:28;;;;;;;5.88;3.97;;;7.00;99.90;;;;;;5005014;28;20025;-81
2022/11/28 03:57:18;;;;;;;8.20;4.57;;;7.00;99.90;;;;;;5028478;28;20127;-81
2022/11/28 03:59:47;;;;;;;6.43;3.95;;;7.00;99.90;;;;;;4971958;28;20034;-81
2022/11/28 04:02:34;;;;;;;6.22;3.85;;;7.00;99.90;;;;;;5002888;28;20034;-81
2022/11/28 04:05:02;;;;;;;6.30;4.35;;;7.00;99.90;;;;;;5000059;28;20512;-81
2022/11/28 04:07:43;;;;;;;7.93;4.35;;;7.00;99.90;;;;;;5004027;28;20037;-81
2022/11/28 04:10:29;;;;;;;6.95;4.22;;;7.00;99.90;;;;;;4986668;28;20026;-81
2022/11/28 04:13:04;;;;;;;5.50;3.90;;;7.00;99.90;;;;;;4996022;28;20023;-81
2022/11/28 04:15:39;;;;;;;6.53;4.45;;;6.90;99.90;;;;;;4998072;28;20084;-82
2022/11/28 04:18:24;;;;;;;6.10;4.13;;;6.90;99.90;;;;;;5007332;28;20501;-82
2022/11/28 04:21:09;;;;;;;5.03;3.47;;;6.90;99.90;;;;;;5003514;28;20040;-82
2022/11/28 04:23:35;;;;;;;6.10;4.28;;;6.90;99.90;;;;;;5016916;28;20038;-81
2022/11/28 04:26:07;;;;;;;5.72;3.65;;;6.90;99.90;;;;;;4997682;28;20034;-81
2022/11/28 04:28:33;;;;;;;9.07;3.72;;;6.90;99.90;;;;;;5008746;28;20030;-81
2022/11/28 04:30:59;;;;;;;6.72;4.25;;;6.90;99.90;;;;;;5027708;28;20581;-81
2022/11/28 04:33:39;;;;;;;7.78;4.75;;;6.90;99.90;;;;;;5019867;28;20026;-81
2022/11/28 04:36:06;;;;;;;8.80;4.50;;;6.80;99.90;;;;;;5007715;28;20037;-82
2022/11/28 04:38:31;;;;;;;5.10;4.00;;;6.80;99.90;;;;;;5008107;28;20559;-82
2022/11/28 04:41:01;;;;;;;6.45;4.68;;;6.80;99.90;;;;;;5008827;28;20101;-82
2022/11/28 04:43:33;;;;;;;5.10;3.42;;;6.90;99.90;;;;;;5017302;28;20037;-81
2022/11/28 04:46:20;;;;;;;5.88;4.68;;;6.90;99.90;;;;;;5019681;28;20044;-82
2022/11/28 04:48:49;;;;;;;6.25;3.90;;;6.90;99.90;;;;;;5010142;28;20030;-82
2022/11/28 04:51:15;;;;;;;6.75;5.03;;;6.90;99.90;;;;;;5012294;28;20034;-82
2022/11/28 04:53:48;;;;;;;5.97;4.53;;;6.90;99.90;;;;;;5026484;28;20522;-82
2022/11/28 04:56:20;;;;;;;9.38;5.15;;;6.80;99.90;;;;;;5007571;28;20370;-82
2022/11/28 04:58:46;;;;;;;14.45;4.22;;;6.80;99.90;;;;;;5024857;28;20033;-82
2022/11/28 05:01:15;;;;;;;5.32;4.05;;;6.90;99.90;;;;;;5004026;28;20033;-82
2022/11/28 05:03:40;;;;;;;7.00;4.10;;;6.90;99.90;;;;;;5011298;28;20477;-83
2022/11/28 05:06:06;;;;;;;6.72;3.85;;;6.80;99.90;;;;;;4992306;28;20025;-82
2022/11/28 05:08:31;;;;;;;5.60;4.05;;;6.80;99.90;;;;;;5009991;28;20116;-82
2022/11/28 05:10:57;;;;;;;6.63;3.70;;;6.90;99.90;;;;;;4981623;28;20079;-81
2022/11/28 05:13:22;;;;;;;5.43;4.53;;;6.80;99.90;;;;;;4971803;28;20402;-81
2022/11/28 05:15:48;;;;;;;6.05;3.95;;;6.90;99.90;;;;;;4973084;28;20501;-81
2022/11/28 05:18:14;;;;;;;6.47;3.88;;;6.90;99.90;;;;;;4999556;28;20605;-81
2022/11/28 05:20:39;;;;;;;5.47;4.00;;;7.00;99.90;;;;;;4996119;28;20560;-81
2022/11/28 05:23:05;;;;;;;6.55;3.53;;;6.90;99.90;;;;;;4980053;28;20497;-81
2022/11/28 05:25:30;;;;;;;5.22;3.70;;;6.90;99.90;;;;;;4974291;28;20175;-81
2022/11/28 05:27:56;;;;;;;7.07;4.75;;;6.90;99.90;;;;;;4984640;28;20026;-82
2022/11/28 05:30:22;;;;;;;8.25;4.60;;;6.90;99.90;;;;;;4992124;28;20487;-81
2022/11/28 05:32:47;;;;;;;7.13;4.80;;;6.90;99.90;;;;;;5009016;28;20032;-81
2022/11/28 05:35:13;;;;;;;7.72;4.45;;;6.90;99.90;;;;;;5005325;28;20080;-82
2022/11/28 05:37:38;;;;;;;6.93;4.45;;;6.80;99.90;;;;;;4983684;28;20033;-81
2022/11/28 05:40:04;;;;;;;7.93;5.00;;;6.80;99.90;;;;;;4998135;28;20832;-82
2022/11/28 05:42:40;;;;;;;10.23;5.72;;;6.80;99.90;;;;;;4986245;28;20077;-82
2022/11/28 05:45:07;;;;;;;5.47;4.32;;;6.80;99.90;;;;;;5022844;28;20033;-82
2022/11/28 05:47:32;;;;;;;6.88;4.13;;;6.80;99.90;;;;;;5013399;28;20028;-81
2022/11/28 05:49:58;;;;;;;7.68;5.45;;;6.80;99.90;;;;;;5008751;28;20029;-81
2022/11/28 05:52:23;;;;;;;7.85;4.40;;;6.80;99.90;;;;;;5024476;28;20038;-81
2022/11/28 05:54:49;;;;;;;7.00;4.65;;;6.80;99.90;;;;;;4991528;28;20521;-81
2022/11/28 05:57:14;;;;;;;6.72;4.15;;;6.80;99.90;;;;;;4976254;28;20486;-81
2022/11/28 05:59:40;;;;;;;8.02;5.18;;;6.80;99.90;;;;;;5027027;28;20113;-81
2022/11/28 06:02:06;;;;;;;5.85;3.95;;;6.80;99.90;;;;;;5011667;28;20483;-81
2022/11/28 06:04:31;;;;;;;7.05;5.30;;;6.80;99.90;;;;;;5007297;28;20437;-82
2022/11/28 06:06:57;;;;;;;7.10;4.82;;;6.80;99.90;;;;;;5004522;28;20068;-82
2022/11/28 06:09:22;;;;;;;7.13;4.47;;;6.80;99.90;;;;;;4980271;28;20114;-83
2022/11/28 06:11:48;;;;;;;9.35;5.40;;;6.80;99.90;;;;;;4982567;28;20061;-81
2022/11/28 06:14:13;;;;;;;7.20;2.45;;;6.80;99.90;;;;;;4985185;28;20080;-80
2022/11/28 06:16:40;;;;;;;7.60;4.50;;;6.80;99.90;;;;;;4981572;28;20038;-81
2022/11/28 06:19:12;;;;;;;7.18;4.68;;;6.80;99.90;;;;;;4982497;28;20034;-82
2022/11/28 06:21:38;;;;;;;7.28;4.00;;;6.80;99.90;;;;;;5010125;28;20079;-81
2022/11/28 06:24:04;;;;;;;11.00;5.30;;;6.80;99.90;;;;;;5009998;28;20033;-79
2022/11/28 06:26:29;;;;;;;7.68;4.95;;;6.80;99.90;;;;;;5019938;28;20451;-80
2022/11/28 06:28:56;;;;;;;7.68;4.72;;;6.80;99.90;;;;;;5002422;28;20052;-80
2022/11/28 06:31:23;;;;;;;7.05;4.07;;;6.80;99.90;;;;;;5003789;28;20048;-80
2022/11/28 06:33:49;;;;;;;5.78;4.50;;;6.80;99.90;;;;;;4992319;28;20052;-79
2022/11/28 06:36:15;;;;;;;7.53;4.65;;;6.80;99.90;;;;;;4989400;28;20764;-80
2022/11/28 06:38:41;;;;;;;8.52;5.47;;;6.80;99.90;;;;;;4972328;28;20044;-80
2022/11/28 06:41:08;;;;;;;12.30;5.88;;;6.80;99.90;;;;;;4985205;28;20108;-79
2022/11/28 06:43:34;;;;;;;8.30;4.32;;;6.70;99.90;;;;;;5004625;28;20033;-80
2022/11/28 06:45:59;;;;;;;12.60;6.35;;;6.70;99.90;;;;;;5013589;28;20061;-80
2022/11/28 06:48:25;;;;;;;9.20;5.22;;;6.70;99.90;;;;;;5021299;28;20037;-79
2022/11/28 06:50:50;;;;;;;9.90;4.63;;;6.70;99.90;;;;;;5007885;28;20101;-79
2022/11/28 06:53:16;;;;;;;8.93;6.68;;;6.80;99.90;;;;;;4988383;28;20033;-79
2022/11/28 06:55:42;;;;;;;9.70;6.03;;;6.70;99.90;;;;;;5017078;28;20045;-79
2022/11/28 06:58:07;;;;;;;8.00;4.57;;;6.70;99.90;;;;;;5018319;28;20061;-79
2022/11/28 07:00:33;;;;;;;7.35;5.10;;;6.70;99.90;;;;;;5001345;28;20025;-79
2022/11/28 07:02:59;;;;;;;7.45;4.63;;;6.70;99.90;;;;;;5022029;28;20029;-79
2022/11/28 07:05:27;;;;;;;10.25;5.15;;;6.70;99.90;;;;;;5008378;28;20041;-79
2022/11/28 07:08:01;;;;;;;8.75;5.28;;;6.70;99.90;;;;;;5005346;28;20041;-79
2022/11/28 07:10:27;;;;;;;12.60;5.80;;;6.70;99.90;;;;;;5000902;28;20473;-80
2022/11/28 07:12:56;;;;;;;6.90;4.60;;;6.60;99.90;;;;;;4991976;28;20033;-79
2022/11/28 07:15:22;;;;;;;7.60;5.18;;;6.70;99.90;;;;;;4999657;28;20048;-80
2022/11/28 07:17:48;;;;;;;8.68;5.78;;;6.70;99.90;;;;;;4992599;28;20021;-80
2022/11/28 07:20:13;;;;;;;9.93;5.68;;;6.70;99.90;;;;;;4986474;28;20095;-80
2022/11/28 07:22:39;;;;;;;9.73;5.15;;;6.70;99.90;;;;;;4981491;28;20514;-80
2022/11/28 07:25:05;;;;;;;9.70;5.50;;;6.70;99.90;;;;;;4970578;28;20065;-80
2022/11/28 07:27:33;;;;;;;7.85;4.47;;;6.70;99.90;;;;;;4981444;28;20515;-80
2022/11/28 07:30:12;;;;;;;9.82;5.80;;;6.70;99.90;;;;;;4987295;28;20145;-80
2022/11/28 07:32:40;;;;;;;7.25;5.35;;;6.70;99.90;;;;;;4988509;28;20485;-80
2022/11/28 07:35:07;;;;;;;6.72;5.22;;;6.70;99.90;;;;;;4981265;28;20029;-80
2022/11/28 07:37:33;;;;;;;10.05;6.28;;;6.70;99.90;;;;;;4983245;28;20026;-79
2022/11/28 07:39:58;;;;;;;10.35;5.95;;;6.70;99.90;;;;;;4985881;28;20029;-79
2022/11/28 07:42:24;;;;;;;13.13;6.63;;;6.70;99.90;;;;;;4972458;28;20034;-79
2022/11/28 07:44:49;;;;;;;11.40;6.88;;;6.70;99.90;;;;;;4989000;28;20035;-80
2022/11/28 07:47:15;;;;;;;10.98;6.13;;;6.70;99.90;;;;;;4974149;28;20504;-80
2022/11/28 07:49:41;;;;;;;9.93;5.65;;;6.80;99.90;;;;;;4981177;28;20034;-80
2022/11/28 07:52:06;;;;;;;9.68;5.78;;;6.80;99.90;;;;;;4988480;28;20362;-80
2022/11/28 07:54:39;;;;;;;11.40;6.88;;;6.80;99.90;;;;;;4970923;28;20034;-79
2022/11/28 07:57:05;;;;;;;9.48;5.10;;;6.80;99.90;;;;;;4974061;28;20060;-80
2022/11/28 07:59:31;;;;;;;6.63;4.90;;;6.80;99.90;;;;;;4986833;28;20116;-79
2022/11/28 08:01:56;;;;;;;9.18;5.70;;;6.90;99.90;;;;;;5005545;28;20474;-79
2022/11/28 08:04:22;;;;;;;9.40;4.65;;;6.90;99.90;;;;;;4986344;28;20091;-80
2022/11/28 08:06:47;;;;;;;10.32;6.28;;;6.90;99.90;;;;;;4972997;28;20431;-79
2022/11/28 08:09:13;;;;;;;12.52;5.43;;;7.00;99.90;;;;;;4984216;28;20443;-79
2022/11/28 08:11:38;;;;;;;8.93;5.35;;;6.90;99.90;;;;;;4973594;28;20477;-79
2022/11/28 08:14:04;;;;;;;6.10;4.60;;;6.90;99.90;;;;;;4970400;28;20041;-80
2022/11/28 08:16:30;;;;;;;10.23;5.28;;;7.00;99.90;;;;;;4985602;28;20847;-80
2022/11/28 08:18:56;;;;;;;8.32;5.60;;;7.00;99.90;;;;;;4983390;28;20034;-80
2022/11/28 08:21:24;;;;;;;8.60;5.93;;;7.00;99.90;;;;;;4987973;28;20042;-79
2022/11/28 08:23:52;;;;;;;7.13;4.88;;;7.00;99.90;;;;;;4971360;28;20030;-79
2022/11/28 08:26:19;;;;;;;7.88;4.85;;;7.00;99.90;;;;;;4984974;28;20042;-79
2022/11/28 08:28:45;;;;;;;9.23;5.80;;;7.10;99.90;;;;;;4982991;28;20501;-80
2022/11/28 08:31:33;;;;;;;9.10;5.35;;;7.10;99.90;;;;;;4979672;28;20034;-79
2022/11/28 08:34:02;;;;;;;9.38;6.05;;;7.00;99.90;;;;;;4971440;28;20057;-79
2022/11/28 08:36:28;;;;;;;12.85;6.18;;;7.10;99.90;;;;;;5020625;28;20029;-79
2022/11/28 08:38:53;;;;;;;10.98;5.20;;;7.10;99.90;;;;;;5021401;28;20037;-78
2022/11/28 08:41:20;;;;;;;13.18;5.75;;;7.10;99.90;;;;;;5011768;28;20038;-79
2022/11/28 08:43:46;;;;;;;9.35;6.20;;;7.10;99.90;;;;;;4982195;28;20110;-79
2022/11/28 08:46:19;;;;;;;9.40;5.45;;;7.20;99.90;;;;;;5001223;28;20124;-78
2022/11/28 08:48:45;;;;;;;9.20;6.65;;;7.20;99.90;;;;;;4981419;28;20030;-78
2022/11/28 08:51:13;;;;;;;11.70;6.25;;;7.20;99.90;;;;;;4988998;28;20034;-79
2022/11/28 08:53:39;;;;;;;7.93;5.65;;;7.20;99.90;;;;;;4992619;28;20030;-79
2022/11/28 08:56:04;;;;;;;8.13;5.78;;;7.30;99.90;;;;;;5001830;28;20037;-79
2022/11/28 08:58:30;;;;;;;10.57;5.65;;;7.30;99.90;;;;;;4969771;28;20157;-79
2022/11/28 09:00:55;;;;;;;10.05;4.40;;;7.30;99.90;;;;;;4985405;28;20310;-79
2022/11/28 09:03:21;;;;;;;10.68;6.03;;;7.30;99.90;;;;;;4979502;28;20180;-79
2022/11/28 09:05:47;;;;;;;9.50;5.55;;;7.30;99.90;;;;;;4983801;28;20035;-79
2022/11/28 09:08:15;;;;;;;8.18;5.40;;;7.40;99.90;;;;;;4999732;28;20037;-79
2022/11/28 09:10:40;;;;;;;7.90;5.18;;;7.40;99.90;;;;;;4999768;28;20073;-79
2022/11/28 09:13:09;;;;;;;8.05;5.70;;;7.40;99.90;;;;;;5000234;28;20058;-79
2022/11/28 09:15:38;;;;;;;8.07;5.78;;;7.50;99.90;;;;;;5002942;28;20376;-79
2022/11/28 09:18:04;;;;;;;7.00;4.25;;;7.50;99.90;;;;;;4983175;28;20039;-79
2022/11/28 09:20:30;;;;;;;7.35;5.80;;;7.50;99.90;;;;;;4982907;28;20034;-79
2022/11/28 09:22:55;;;;;;;9.60;5.35;;;7.50;99.90;;;;;;4980278;28;20508;-79
2022/11/28 09:25:21;;;;;;;8.05;5.50;;;7.50;99.90;;;;;;4984406;28;20065;-78
2022/11/28 09:27:48;;;;;;;6.43;4.80;;;7.60;99.90;;;;;;4995122;28;20377;-79
2022/11/28 09:30:13;;;;;;;9.32;6.18;;;7.50;99.90;;;;;;4970910;28;20613;-79
2022/11/28 09:32:39;;;;;;;10.63;5.50;;;7.50;99.90;;;;;;4982679;28;20105;-79
2022/11/28 09:35:05;;;;;;;7.45;4.03;;;7.60;99.90;;;;;;4983281;28;20027;-79
2022/11/28 09:37:30;;;;;;;9.93;6.47;;;7.50;99.90;;;;;;4993567;28;20394;-79
2022/11/28 09:39:56;;;;;;;7.13;4.93;;;7.50;99.90;;;;;;5014715;28;20033;-79
2022/11/28 09:42:29;;;;;;;9.68;5.90;;;7.50;99.90;;;;;;5023985;28;20128;-79
2022/11/28 09:45:23;;;;;;;8.13;4.97;;;7.60;99.90;;;;;;5016894;28;20025;-79
2022/11/28 09:47:54;;;;;;;10.60;6.20;;;7.60;99.90;;;;;;4998694;28;20098;-79
2022/11/28 09:50:22;;;;;;;9.20;5.43;;;7.60;99.90;;;;;;5002645;28;20025;-78
2022/11/28 09:53:02;;;;;;;7.95;5.07;;;7.60;99.90;;;;;;4999574;28;20041;-79
2022/11/28 09:55:49;;;;;;;9.57;6.57;;;7.60;99.90;;;;;;4972710;28;20037;-79
2022/11/28 09:58:37;;;;;;;7.72;5.45;;;7.60;99.90;;;;;;5003736;28;20041;-79
2022/11/28 10:01:24;;;;;;;9.90;6.15;;;7.60;99.90;;;;;;5009707;28;20056;-79
2022/11/28 10:04:01;;;;;;;9.57;6.00;;;7.60;99.90;;;;;;5003904;28;20401;-79
2022/11/28 10:06:35;;;;;;;6.80;4.75;;;7.70;99.90;;;;;;4987455;28;20045;-79
2022/11/28 10:09:25;;;;;;;10.55;5.40;;;7.60;99.90;;;;;;4995735;28;20073;-79
2022/11/28 10:12:03;;;;;;;11.18;6.75;;;7.70;99.90;;;;;;5017694;28;20497;-81
2022/11/28 10:14:51;;;;;;;8.93;6.35;;;7.70;99.90;;;;;;5025034;28;20052;-81
2022/11/28 10:17:35;;;;;;;11.98;6.70;;;7.70;99.90;;;;;;5013401;28;20029;-81
2022/11/28 10:20:31;;;;;;;9.07;5.20;;;7.80;99.90;;;;;;4998253;28;20125;-81
2022/11/28 10:23:06;;;;;;;11.40;7.60;;;7.80;99.90;;;;;;5020015;28;20041;-79
2022/11/28 10:26:15;;;;;;;8.75;5.30;;;7.90;99.90;;;;;;5002434;28;20126;-78
2022/11/28 10:28:42;;;;;;;10.50;6.18;;;7.90;99.90;;;;;;5000828;28;20026;-78
2022/11/28 10:31:22;;;;;;;11.05;6.55;;;7.90;99.90;;;;;;4981786;28;20078;-78
2022/11/28 10:34:10;;;;;;;11.68;7.00;;;8.00;99.90;;;;;;4984162;28;20057;-79
2022/11/28 10:36:54;;;;;;;8.20;5.57;;;8.00;99.90;;;;;;4980968;28;20116;-78
2022/11/28 10:39:20;;;;;;;10.25;6.00;;;8.00;99.90;;;;;;4999905;28;20481;-79
2022/11/28 10:42:10;;;;;;;7.93;6.15;;;8.00;99.90;;;;;;5003814;28;20036;-78
2022/11/28 10:45:02;;;;;;;11.95;7.60;;;8.00;99.90;;;;;;5018956;28;20497;-78
2022/11/28 10:47:49;;;;;;;9.02;5.80;;;8.10;99.90;;;;;;5025797;28;20123;-78
2022/11/28 10:50:48;;;;;;;10.85;5.80;;;8.10;99.90;;;;;;5020589;28;20486;-79
2022/11/28 10:53:21;;;;;;;12.05;6.70;;;8.10;99.90;;;;;;5010557;28;20052;-78
2022/11/28 10:56:09;;;;;;;8.63;5.38;;;8.20;99.90;;;;;;5004827;28;20025;-78
2022/11/28 10:59:13;;;;;;;9.73;5.43;;;8.20;99.90;;;;;;4990366;28;20568;-78
2022/11/28 11:01:39;;;;;;;10.32;6.45;;;8.20;99.90;;;;;;4962178;28;20027;-78
2022/11/28 11:04:07;;;;;;;11.52;6.80;;;8.20;99.90;;;;;;4973805;28;20032;-79
2022/11/28 11:06:32;;;;;;;6.70;5.03;;;8.30;99.90;;;;;;4966142;28;20035;-78
2022/11/28 11:08:58;;;;;;;9.32;5.57;;;8.30;99.90;;;;;;4996887;28;20536;-79
2022/11/28 11:11:29;;;;;;;9.95;5.85;;;8.20;99.90;;;;;;4987352;28;20068;-79
2022/11/28 11:14:03;;;;;;;8.85;6.13;;;8.30;99.90;;;;;;4984346;28;20144;-79
2022/11/28 11:16:53;;;;;;;7.63;6.25;;;8.30;99.90;;;;;;5019685;28;20033;-79
2022/11/28 11:19:30;;;;;;;12.48;6.63;;;8.20;99.90;;;;;;5017026;28;20160;-79
2022/11/28 11:22:06;;;;;;;11.20;6.90;;;8.20;99.90;;;;;;5002768;28;20065;-79
2022/11/28 11:24:32;;;;;;;11.52;7.18;;;8.30;99.90;;;;;;5005717;28;20041;-79
2022/11/28 11:27:15;;;;;;;11.00;5.90;;;8.40;99.90;;;;;;5018360;28;20033;-79
2022/11/28 11:29:40;;;;;;;9.00;6.00;;;8.50;99.90;;;;;;5017486;28;20573;-79
2022/11/28 11:32:14;;;;;;;11.27;7.03;;;8.40;99.90;;;;;;5020646;28;20034;-79
2022/11/28 11:34:43;;;;;;;11.48;7.10;;;8.40;99.90;;;;;;5003976;28;20099;-79
2022/11/28 11:37:27;;;;;;;11.65;6.97;;;8.50;99.90;;;;;;4999304;28;20037;-79
2022/11/28 11:39:53;;;;;;;13.30;7.10;;;8.50;99.90;;;;;;5018082;28;20034;-79
2022/11/28 11:42:24;;;;;;;9.15;5.53;;;8.50;99.90;;;;;;5019343;28;20488;-79
2022/11/28 11:44:49;;;;;;;10.82;7.00;;;8.60;99.90;;;;;;4991123;28;20034;-79
2022/11/28 11:47:15;;;;;;;10.48;6.30;;;8.60;99.90;;;;;;5007127;28;20038;-79
2022/11/28 11:49:43;;;;;;;11.55;6.55;;;8.60;99.90;;;;;;4998617;28;20504;-79
2022/11/28 11:52:11;;;;;;;8.35;5.72;;;8.60;99.90;;;;;;4989528;28;20041;-79
2022/11/28 11:54:38;;;;;;;11.77;7.50;;;8.60;99.90;;;;;;5014268;28;20064;-79
2022/11/28 11:57:03;;;;;;;13.48;7.82;;;8.60;99.90;;;;;;5006027;28;20033;-78
2022/11/28 11:59:39;;;;;;;11.52;6.03;;;8.60;99.90;;;;;;5024227;28;20026;-79
2022/11/28 12:02:20;;;;;;;10.32;7.35;;;8.60;99.90;;;;;;4989484;28;20032;-79
2022/11/28 12:04:49;;;;;;;10.52;6.60;;;8.60;99.90;;;;;;5007480;28;20033;-79
2022/11/28 12:07:56;;;;;;;8.80;6.07;;;8.50;99.90;;;;;;5002224;28;20098;-79
2022/11/28 12:10:29;;;;;;;7.63;5.65;;;8.60;99.90;;;;;;4983787;28;20409;-80
2022/11/28 12:12:54;;;;;;;11.98;8.00;;;8.50;99.90;;;;;;4985646;28;20136;-79
2022/11/28 12:15:41;;;;;;;9.10;5.88;;;8.50;99.90;;;;;;4966220;28;20201;-79
2022/11/28 12:18:23;;;;;;;10.23;6.20;;;8.60;99.90;;;;;;5004406;28;20096;-79
2022/11/28 12:21:19;;;;;;;10.73;7.50;;;8.50;99.90;;;;;;4973683;28;20061;-79
2022/11/28 12:24:03;;;;;;;13.13;7.32;;;8.50;99.90;;;;;;4998989;28;20045;-79
2022/11/28 12:26:44;;;;;;;13.10;7.30;;;8.50;99.90;;;;;;5011319;28;20094;-79
2022/11/28 12:29:43;;;;;;;9.55;6.95;;;8.50;99.90;;;;;;5029766;28;20087;-80
2022/11/28 12:32:41;;;;;;;9.05;5.40;;;8.50;99.90;;;;;;4678135;28;10000883;-79
2022/11/28 12:35:23;;;;;;;12.85;7.93;;;8.50;99.90;;;;;;4993767;28;20039;-79
2022/11/28 12:38:06;;;;;;;11.18;8.32;;;8.50;99.90;;;;;;4999777;28;20137;-79
2022/11/28 12:40:43;;;;;;;14.07;6.95;;;8.50;99.90;;;;;;4980169;28;20057;-80
2022/11/28 12:43:32;;;;;;;8.77;5.55;;;8.40;99.90;;;;;;5002490;28;20030;-80
2022/11/28 12:46:22;;;;;;;7.75;5.50;;;8.50;99.90;;;;;;4998597;28;20029;-80
2022/11/28 12:49:17;;;;;;;11.38;7.88;;;8.50;99.90;;;;;;5007230;28;20397;-80
2022/11/28 12:52:15;;;;;;;10.07;6.80;;;8.50;99.90;;;;;;5004745;28;20069;-80
2022/11/28 12:54:47;;;;;;;7.53;5.70;;;8.50;99.90;;;;;;5004494;28;20135;-80
2022/11/28 12:57:19;;;;;;;15.60;8.32;;;8.50;99.90;;;;;;5006443;28;20035;-80
2022/11/28 13:00:05;;;;;;;11.63;8.52;;;8.50;99.90;;;;;;4997260;28;20045;-81
2022/11/28 13:02:48;;;;;;;10.13;6.50;;;8.50;99.90;;;;;;4975133;28;20042;-80
2022/11/28 13:05:32;;;;;;;11.23;7.05;;;8.50;99.90;;;;;;4996553;28;20180;-80
2022/11/28 13:08:02;;;;;;;13.95;9.68;;;8.50;99.90;;;;;;4997937;28;20088;-80
2022/11/28 13:10:50;;;;;;;13.55;8.98;;;8.50;99.90;;;;;;4997295;28;20109;-80
2022/11/28 13:13:43;;;;;;;8.18;6.10;;;8.50;99.90;;;;;;4996139;28;20058;-80
2022/11/28 13:16:32;;;;;;;12.18;7.85;;;8.50;99.90;;;;;;5015993;28;20030;-80
2022/11/28 13:19:07;;;;;;;9.73;6.93;;;8.60;99.90;;;;;;5010523;28;20052;-80
2022/11/28 13:21:42;;;;;;;9.07;6.85;;;8.60;99.90;;;;;;4993656;28;20052;-80